Time;durP1;ratioP1;P1;durP2;ratioP2;P2;SDS_P1;SDS_P2;PMS_P1;PMS_P2;Temp;Humidity;BMP_temperature;BMP_pressure;BME280_temperature;BME280_humidity;BME280_pressure;Samples;Min_cycle;Max_cycle;Signal;HPM_P1;HPM_P2
2021/04/09 00:04:08;;;;;;;1999.90;999.90;;;;;;;4.98;54.93;101490.91;15807110;28;20428;-63
2021/04/09 00:11:41;;;;;;;1999.90;999.90;;;;;;;5.12;54.70;101491.19;15817689;28;20301;-61
2021/04/09 00:19:15;;;;;;;1999.90;999.90;;;;;;;4.89;55.76;101484.25;15815727;28;20044;-61
2021/04/09 00:26:48;;;;;;;1999.90;999.90;;;;;;;4.80;56.06;101488.69;15845895;28;20101;-63
2021/04/09 00:34:19;;;;;;;1999.90;999.90;;;;;;;4.76;55.84;101463.53;15819674;28;20102;-61
2021/04/09 00:41:51;;;;;;;1999.90;999.90;;;;;;;4.74;55.81;101464.91;15792963;28;20496;-62
2021/04/09 00:49:23;;;;;;;1999.90;999.90;;;;;;;4.68;55.65;101450.22;15837942;28;20452;-61
2021/04/09 00:56:56;;;;;;;1999.90;999.90;;;;;;;4.55;56.11;101437.78;15793321;28;20506;-62
2021/04/09 01:04:28;;;;;;;1999.90;999.90;;;;;;;4.35;56.37;101427.53;15819870;28;20036;-63
2021/04/09 01:12:00;;;;;;;1999.90;999.90;;;;;;;4.39;56.44;101410.44;15773546;28;20090;-63
2021/04/09 01:19:48;;;;;;;1999.90;999.90;;;;;;;4.16;57.22;101398.78;15756577;28;20052;-61
2021/04/09 01:27:51;;;;;;;1999.90;999.90;;;;;;;4.04;57.38;101387.16;15741917;28;20503;-61
2021/04/09 01:35:24;;;;;;;1999.90;999.90;;;;;;;3.90;57.91;101372.22;15759267;28;20040;-62
2021/04/09 01:42:58;;;;;;;;;;;;;;;4.00;57.53;101359.28;15809471;28;20451;-61
2021/04/09 01:50:32;;;;;;;1999.90;999.90;;;;;;;3.96;57.61;101354.56;15824404;28;19920;-62
2021/04/09 01:58:04;;;;;;;1999.90;999.90;;;;;;;3.99;57.40;101334.69;15804462;28;20524;-64
2021/04/09 02:05:39;;;;;;;1999.90;999.90;;;;;;;3.86;57.70;101324.19;15842616;28;20104;-61
2021/04/09 02:13:11;;;;;;;1999.90;999.90;;;;;;;3.85;57.56;101320.56;15843701;28;20040;-59
2021/04/09 02:20:43;;;;;;;1999.90;999.90;;;;;;;3.86;57.73;101313.97;15824031;28;20070;-61
2021/04/09 02:28:16;;;;;;;1999.90;999.90;;;;;;;3.57;58.17;101302.59;15800800;28;20067;-62
2021/04/09 02:35:48;;;;;;;1999.90;999.90;;;;;;;3.74;57.70;101294.03;15792293;28;20044;-62
2021/04/09 02:43:20;;;;;;;1999.90;999.90;;;;;;;3.76;57.83;101278.06;15835674;28;20063;-62
2021/04/09 02:50:53;;;;;;;1999.90;999.90;;;;;;;3.71;57.84;101276.09;15833900;28;20453;-61
2021/04/09 02:58:25;;;;;;;1999.90;999.90;;;;;;;3.67;57.94;101263.97;15829374;28;20036;-60
2021/04/09 03:05:58;;;;;;;1999.90;999.90;;;;;;;3.71;57.68;101254.03;15853004;28;20047;-62
2021/04/09 03:13:30;;;;;;;1999.90;999.90;;;;;;;3.58;57.98;101242.69;15810450;28;20600;-62
2021/04/09 03:21:03;;;;;;;1999.90;999.90;;;;;;;3.38;58.29;101227.75;15815065;28;20040;-62
2021/04/09 03:28:34;;;;;;;1999.90;999.90;;;;;;;3.35;58.55;101221.97;15831871;28;20119;-62
2021/04/09 03:36:07;;;;;;;1999.90;999.90;;;;;;;3.56;57.94;101233.88;15810560;28;20634;-60
2021/04/09 03:43:38;;;;;;;1999.90;999.90;;;;;;;3.47;58.08;101208.75;15780968;28;20048;-60
2021/04/09 03:51:11;;;;;;;1999.90;999.90;;;;;;;3.38;58.31;101200.16;15825181;28;20051;-61
2021/04/09 03:58:42;;;;;;;1999.90;999.90;;;;;;;3.29;58.56;101185.25;15808122;28;20453;-61
2021/04/09 04:06:15;;;;;;;1999.90;999.90;;;;;;;3.30;58.34;101178.63;15809436;28;20052;-61
2021/04/09 04:13:46;;;;;;;1999.90;999.90;;;;;;;3.45;57.89;101167.63;15811226;28;20055;-62
2021/04/09 04:21:20;;;;;;;1999.90;999.90;;;;;;;3.21;59.13;101177.50;15786847;28;20094;-62
2021/04/09 04:28:51;;;;;;;1999.90;999.90;;;;;;;3.28;58.76;101182.78;15843688;28;20464;-60
2021/04/09 04:36:24;;;;;;;1999.90;999.90;;;;;;;3.24;59.31;101176.97;15793808;28;20044;-61
2021/04/09 04:43:56;;;;;;;1999.90;999.90;;;;;;;3.35;58.82;101173.13;15802328;28;20492;-61
2021/04/09 04:51:28;;;;;;;1999.90;999.90;;;;;;;3.60;58.15;101175.09;15804118;28;20048;-62
2021/04/09 04:59:00;;;;;;;1999.90;999.90;;;;;;;3.76;57.73;101162.13;15804277;28;20114;-62
2021/04/09 05:06:32;;;;;;;1999.90;999.90;;;;;;;3.68;57.99;101151.63;15786711;28;20067;-61
2021/04/09 05:14:04;;;;;;;1999.90;999.90;;;;;;;4.15;57.07;101148.53;15804710;28;20051;-61
2021/04/09 05:21:36;;;;;;;1999.90;999.90;;;;;;;4.72;55.30;101163.00;15802284;28;20725;-62
2021/04/09 05:29:08;;;;;;;1999.90;999.90;;;;;;;5.33;53.90;101151.59;15784522;28;20052;-60
2021/04/09 05:36:40;;;;;;;1999.90;999.90;;;;;;;5.67;53.05;101127.50;15802927;28;20044;-61
2021/04/09 05:44:11;;;;;;;1999.90;999.90;;;;;;;5.43;52.91;101129.38;15784033;28;20048;-61
2021/04/09 05:51:44;;;;;;;1999.90;999.90;;;;;;;5.85;52.46;101125.97;15784599;28;20044;-63
2021/04/09 05:59:15;;;;;;;1999.90;999.90;;;;;;;5.94;51.79;101123.41;15806408;28;20059;-61
2021/04/09 06:06:48;;;;;;;1999.90;999.90;;;;;;;6.50;50.97;101117.25;15807534;28;20048;-61
2021/04/09 06:14:20;;;;;;;1999.90;999.90;;;;;;;6.44;50.43;101127.56;15814062;28;20505;-61
2021/04/09 06:21:52;;;;;;;1999.90;999.90;;;;;;;6.19;51.67;101125.94;15797308;28;20040;-62
2021/04/09 06:29:24;;;;;;;1999.90;999.90;;;;;;;6.16;52.02;101126.53;15795782;28;20055;-63
2021/04/09 06:36:56;;;;;;;1999.90;999.90;;;;;;;7.02;50.96;101112.69;15778314;28;20179;-63
2021/04/09 06:44:28;;;;;;;1999.90;999.90;;;;;;;7.16;50.29;101110.78;15795561;28;20040;-65
2021/04/09 06:52:00;;;;;;;1999.90;999.90;;;;;;;7.93;48.37;101108.41;15812362;28;20448;-63
2021/04/09 06:59:33;;;;;;;1999.90;999.90;;;;;;;7.74;49.24;101108.47;15779213;28;20044;-62
2021/04/09 07:07:09;;;;;;;1999.90;999.90;;;;;;;9.43;45.53;101095.47;15793256;28;20207;-62
2021/04/09 07:14:51;;;;;;;1999.90;999.90;;;;;;;9.46;44.32;101100.41;15811125;28;20047;-62
2021/04/09 07:22:29;;;;;;;1999.90;999.90;;;;;;;9.30;44.27;101089.97;15791173;28;20044;-60
2021/04/09 07:30:01;;;;;;;1999.90;999.90;;;;;;;9.60;43.45;101094.78;15809792;28;20047;-62
2021/04/09 07:37:47;;;;;;;1999.90;999.90;;;;;;;9.64;43.90;101092.19;15809244;28;20516;-60
2021/04/09 07:45:22;;;;;;;1999.90;999.90;;;;;;;10.18;43.46;101081.81;15803430;28;20043;-60
2021/04/09 07:52:55;;;;;;;1999.90;999.90;;;;;;;12.67;39.82;101071.63;15805209;28;20048;-60
2021/04/09 08:00:30;;;;;;;1999.90;999.90;;;;;;;11.08;40.37;101063.53;15741516;28;20071;-60
2021/04/09 08:08:02;;;;;;;1999.90;999.90;;;;;;;11.56;39.88;101065.28;15786753;28;20046;-61
2021/04/09 08:15:34;;;;;;;1999.90;999.90;;;;;;;11.55;39.94;101056.06;15786079;28;20102;-64
2021/04/09 08:23:09;;;;;;;1999.90;999.90;;;;;;;12.80;38.72;101049.31;15770320;28;20139;-61
2021/04/09 08:30:43;;;;;;;1999.90;999.90;;;;;;;13.31;36.63;101050.09;15806837;28;20040;-63
2021/04/09 08:38:16;;;;;;;1999.90;999.90;;;;;;;14.50;36.40;101039.88;15801691;28;20040;-63
2021/04/09 08:45:48;;;;;;;1999.90;999.90;;;;;;;14.73;35.75;101036.22;15767928;28;20044;-62
2021/04/09 08:53:24;;;;;;;1999.90;999.90;;;;;;;14.65;34.91;101030.72;15803742;28;20098;-60
2021/04/09 09:01:09;;;;;;;1999.90;999.90;;;;;;;14.52;35.56;101031.91;15804940;28;20496;-59
2021/04/09 09:08:59;;;;;;;1999.90;999.90;;;;;;;14.08;35.82;101026.03;15785761;28;20380;-62
2021/04/09 09:16:36;;;;;;;1999.90;999.90;;;;;;;14.50;35.41;101020.22;15803616;28;20051;-61
2021/04/09 09:24:19;;;;;;;1999.90;999.90;;;;;;;15.71;34.63;101018.19;15784926;28;20044;-59
2021/04/09 09:32:01;;;;;;;1999.90;999.90;;;;;;;16.22;33.06;101013.50;15804210;28;20072;-60
2021/04/09 09:39:36;;;;;;;1999.90;999.90;;;;;;;16.80;32.40;100998.81;15781681;28;20082;-59
2021/04/09 09:47:18;;;;;;;1999.90;999.90;;;;;;;16.32;33.10;101000.88;15813239;28;20048;-61
2021/04/09 09:55:13;;;;;;;1999.90;999.90;;;;;;;16.00;33.36;100994.44;15813083;28;20087;-58
2021/04/09 10:02:45;;;;;;;1999.90;999.90;;;;;;;16.29;33.88;100974.25;15775948;28;20466;-62
2021/04/09 10:10:17;;;;;;;1999.90;999.90;;;;;;;17.50;30.75;100985.34;15795039;28;20550;-61
2021/04/09 10:18:04;;;;;;;1999.90;999.90;;;;;;;18.32;30.84;100971.88;15794588;28;20055;-60
2021/04/09 10:25:36;;;;;;;1999.90;999.90;;;;;;;19.00;30.21;100963.22;15812467;28;20040;-62
2021/04/09 10:33:08;;;;;;;1999.90;999.90;;;;;;;16.80;31.82;100954.53;15793693;28;20067;-64
2021/04/09 10:40:55;;;;;;;1999.90;999.90;;;;;;;17.57;31.36;100954.47;15792592;28;20051;-64
2021/04/09 10:48:26;;;;;;;1999.90;999.90;;;;;;;17.00;31.57;100958.19;15811115;28;20500;-62
2021/04/09 10:56:02;;;;;;;1999.90;999.90;;;;;;;17.37;31.93;100944.41;15792595;28;20068;-63
2021/04/09 11:03:37;;;;;;;1999.90;999.90;;;;;;;18.18;31.72;100939.41;15776636;28;20135;-63
2021/04/09 11:11:12;;;;;;;1999.90;999.90;;;;;;;18.71;30.96;100924.47;15791886;28;20032;-63
2021/04/09 11:18:53;;;;;;;1999.90;999.90;;;;;;;17.88;32.34;100918.75;15808344;28;20044;-62
2021/04/09 11:26:28;;;;;;;1999.90;999.90;;;;;;;18.96;30.51;100897.31;15790592;28;20516;-60
2021/04/09 11:34:08;;;;;;;1999.90;999.90;;;;;;;19.37;30.18;100891.69;15789981;28;20054;-62
2021/04/09 11:41:42;;;;;;;1999.90;999.90;;;;;;;18.96;30.75;100890.84;15770119;28;20048;-61
2021/04/09 11:49:15;;;;;;;1999.90;999.90;;;;;;;19.36;30.73;100886.44;15767681;28;20670;-63
2021/04/09 11:56:49;;;;;;;1999.90;999.90;;;;;;;20.11;29.58;100885.91;15788518;28;20488;-61
2021/04/09 12:04:31;;;;;;;1999.90;999.90;;;;;;;20.91;27.34;100877.44;15806513;28;20665;-63
2021/04/09 12:12:04;;;;;;;1999.90;999.90;;;;;;;19.92;28.43;100872.00;15738172;23;20037;-56
2021/04/09 12:19:37;;;;;;;1999.90;999.90;;;;;;;20.04;28.29;100873.72;15655913;28;20500;-57
2021/04/09 12:27:10;;;;;;;1999.90;999.90;;;;;;;19.48;29.11;100866.31;15674174;28;20041;-59
2021/04/09 12:34:42;;;;;;;1999.90;999.90;;;;;;;19.37;29.04;100857.75;15640233;28;20393;-60
2021/04/09 12:42:15;;;;;;;1999.90;999.90;;;;;;;18.61;29.96;100855.25;15673329;28;20615;-61
2021/04/09 12:49:47;;;;;;;1999.90;999.90;;;;;;;18.19;31.78;100849.84;15655533;28;20045;-58
2021/04/09 12:57:20;;;;;;;1999.90;999.90;;;;;;;18.55;29.80;100845.50;15672380;28;20040;-59
2021/04/09 13:04:51;;;;;;;1999.90;999.90;;;;;;;17.38;31.33;100852.13;15653752;28;20045;-60
2021/04/09 13:12:24;;;;;;;1999.90;999.90;;;;;;;17.31;31.80;100838.75;15670376;28;20049;-61
2021/04/09 13:19:55;;;;;;;1999.90;999.90;;;;;;;18.97;30.64;100824.63;15652422;28;20148;-60
2021/04/09 13:27:29;;;;;;;1999.90;999.90;;;;;;;18.30;31.41;100814.09;15671068;28;20045;-60
2021/04/09 13:35:00;;;;;;;1999.90;999.90;;;;;;;19.72;29.37;100814.81;15712560;28;20056;-60
2021/04/09 13:42:34;;;;;;;1999.90;999.90;;;;;;;18.83;29.94;100815.97;15713548;28;20067;-60
2021/04/09 13:50:07;;;;;;;1999.90;999.90;;;;;;;18.11;31.38;100808.56;15714909;28;20135;-61
2021/04/09 13:57:40;;;;;;;1999.90;999.90;;;;;;;20.31;27.90;100809.91;15713753;28;20044;-61
2021/04/09 14:05:12;;;;;;;1999.90;999.90;;;;;;;17.47;30.79;100802.75;15715670;28;20049;-59
2021/04/09 14:12:45;;;;;;;1999.90;999.90;;;;;;;17.25;31.93;100798.75;15714872;28;20070;-61
2021/04/09 14:20:18;;;;;;;1999.90;999.90;;;;;;;17.69;31.75;100803.94;15731572;28;20036;-62
2021/04/09 14:27:51;;;;;;;1999.90;999.90;;;;;;;16.93;32.70;100800.19;15675965;28;20388;-60
2021/04/09 14:35:23;;;;;;;1999.90;999.90;;;;;;;16.97;32.65;100793.41;15658589;28;20045;-62
2021/04/09 14:42:55;;;;;;;1999.90;999.90;;;;;;;17.43;32.59;100796.25;15644128;28;20048;-60
2021/04/09 14:50:27;;;;;;;1999.90;999.90;;;;;;;16.47;33.60;100802.88;15679976;28;20462;-60
2021/04/09 14:58:00;;;;;;;1999.90;999.90;;;;;;;16.58;33.69;100795.47;15678985;28;20377;-62
2021/04/09 15:05:31;;;;;;;1999.90;999.90;;;;;;;16.78;33.92;100796.28;15678177;28;20194;-60
2021/04/09 15:13:05;;;;;;;1999.90;999.90;;;;;;;16.12;34.51;100789.66;15715716;28;20048;-62
2021/04/09 15:20:37;;;;;;;1999.90;999.90;;;;;;;16.36;34.69;100787.75;15721747;28;20425;-62
2021/04/09 15:28:10;;;;;;;1999.90;999.90;;;;;;;16.41;34.69;100785.47;15736223;28;20040;-60
2021/04/09 15:35:41;;;;;;;1999.90;999.90;;;;;;;16.07;35.18;100777.91;15715943;28;20403;-61
2021/04/09 15:43:13;;;;;;;1999.90;999.90;;;;;;;16.01;35.38;100785.81;15734911;28;20047;-60
2021/04/09 15:50:46;;;;;;;1999.90;999.90;;;;;;;15.85;35.49;100774.59;15712470;28;20102;-58
2021/04/09 15:58:18;;;;;;;1999.90;999.90;;;;;;;16.23;35.41;100791.91;15732865;28;20036;-61
2021/04/09 16:05:50;;;;;;;1999.90;999.90;;;;;;;16.31;35.85;100774.78;15703141;28;20097;-57
2021/04/09 16:13:22;;;;;;;1999.90;999.90;;;;;;;16.40;35.94;100791.47;15717001;28;20524;-60
2021/04/09 16:20:54;;;;;;;1999.90;999.90;;;;;;;16.26;35.53;100789.19;15701327;28;20544;-59
2021/04/09 16:28:26;;;;;;;1999.90;999.90;;;;;;;16.14;35.46;100783.66;15736729;28;20043;-61
2021/04/09 16:35:58;;;;;;;1999.90;999.90;;;;;;;16.08;36.51;100791.59;15735360;28;20048;-58
2021/04/09 16:43:30;;;;;;;1999.90;999.90;;;;;;;15.86;36.52;100793.13;15715599;28;20040;-61
2021/04/09 16:51:03;;;;;;;1999.90;999.90;;;;;;;15.74;36.91;100789.63;15716013;28;20500;-61
2021/04/09 16:58:36;;;;;;;1999.90;999.90;;;;;;;16.01;36.78;100788.63;15698314;28;20067;-59
2021/04/09 17:06:07;;;;;;;1999.90;999.90;;;;;;;16.12;37.52;100795.28;15714245;28;20464;-60
2021/04/09 17:13:40;;;;;;;1999.90;999.90;;;;;;;15.94;38.04;100793.25;15698051;28;20067;-60
2021/04/09 17:21:14;;;;;;;1999.90;999.90;;;;;;;15.90;38.68;100796.00;15733233;28;20049;-61
2021/04/09 17:28:46;;;;;;;1999.90;999.90;;;;;;;15.94;38.00;100796.88;15715188;28;20365;-61
2021/04/09 17:36:18;;;;;;;1999.90;999.90;;;;;;;15.80;37.95;100797.38;15732089;28;20119;-61
2021/04/09 17:43:50;;;;;;;1999.90;999.90;;;;;;;15.83;39.14;100793.03;15713859;28;20052;-60
2021/04/09 17:51:23;;;;;;;1999.90;999.90;;;;;;;15.70;38.87;100797.13;15714981;28;20145;-60
2021/04/09 17:58:56;;;;;;;1999.90;999.90;;;;;;;15.57;38.70;100783.16;15714315;28;20124;-60
2021/04/09 18:06:27;;;;;;;1999.90;999.90;;;;;;;15.52;38.84;100794.69;15705755;28;20572;-59
2021/04/09 18:14:00;;;;;;;1999.90;999.90;;;;;;;15.30;39.30;100793.34;15806830;22;20051;-57
2021/04/09 18:21:31;;;;;;;1999.90;999.90;;;;;;;15.16;39.65;100797.78;15808292;28;20141;-56
2021/04/09 18:29:04;;;;;;;1999.90;999.90;;;;;;;15.08;40.45;100804.41;15755384;28;20059;-56
2021/04/09 18:36:35;;;;;;;1999.90;999.90;;;;;;;14.98;40.52;100808.56;15806704;28;20494;-56
2021/04/09 18:44:09;;;;;;;1999.90;999.90;;;;;;;14.81;42.30;100808.91;15771109;28;20403;-59
2021/04/09 18:51:41;;;;;;;1999.90;999.90;;;;;;;14.77;41.23;100808.78;15788899;28;20051;-56
2021/04/09 18:59:13;;;;;;;1999.90;999.90;;;;;;;14.73;40.43;100805.88;15787146;28;20047;-56
2021/04/09 19:06:45;;;;;;;1999.90;999.90;;;;;;;14.62;41.99;100804.78;15786060;28;20050;-57
2021/04/09 19:14:17;;;;;;;1999.90;999.90;;;;;;;14.57;41.84;100819.06;15785882;28;20044;-57
2021/04/09 19:21:49;;;;;;;1999.90;999.90;;;;;;;14.37;40.86;100815.25;15784967;28;20388;-56
2021/04/09 19:29:21;;;;;;;1999.90;999.90;;;;;;;14.24;41.38;100821.25;15785131;28;20040;-56
2021/04/09 19:36:52;;;;;;;1999.90;999.90;;;;;;;14.23;41.84;100814.00;15784762;28;20067;-56
2021/04/09 19:44:25;;;;;;;1999.90;999.90;;;;;;;14.03;41.47;100819.44;15784885;28;20514;-57
2021/04/09 19:51:56;;;;;;;1999.90;999.90;;;;;;;13.98;42.86;100830.91;15801707;28;20044;-57
2021/04/09 19:59:29;;;;;;;1999.90;999.90;;;;;;;13.99;42.24;100817.72;15783388;28;20048;-58
2021/04/09 20:07:00;;;;;;;1999.90;999.90;;;;;;;13.77;43.32;100821.84;15796010;28;20055;-63
2021/04/09 20:14:33;;;;;;;1999.90;999.90;;;;;;;13.65;43.12;100824.63;15802820;28;20049;-62
2021/04/09 20:22:05;;;;;;;1999.90;999.90;;;;;;;13.51;43.22;100827.78;15903822;27;20138;-58
2021/04/09 20:29:37;;;;;;;1999.90;999.90;;;;;;;13.60;44.01;100824.88;15908655;27;20035;-60
2021/04/09 20:37:09;;;;;;;1999.90;999.90;;;;;;;13.51;43.69;100822.19;15908774;27;20458;-57
2021/04/09 20:44:41;;;;;;;1999.90;999.90;;;;;;;13.60;43.09;100820.09;15907914;27;20048;-56
2021/04/09 20:52:15;;;;;;;1999.90;999.90;;;;;;;13.46;43.76;100814.03;15907666;27;20378;-59
2021/04/09 20:59:47;;;;;;;1999.90;999.90;;;;;;;13.41;44.91;100815.06;15889783;27;20058;-62
2021/04/09 21:07:19;;;;;;;1999.90;999.90;;;;;;;13.23;45.49;100816.44;15905740;27;20039;-55
2021/04/09 21:14:51;;;;;;;1999.90;999.90;;;;;;;13.16;44.72;100827.38;15924516;27;20051;-53
2021/04/09 21:22:23;;;;;;;1999.90;999.90;;;;;;;12.63;46.27;100834.72;15924029;27;20043;-54
2021/04/09 21:29:55;;;;;;;1999.90;999.90;;;;;;;12.55;46.54;100822.44;15903579;27;20096;-57
2021/04/09 21:37:26;;;;;;;1999.90;999.90;;;;;;;12.41;47.83;100825.53;15904340;27;20035;-58
2021/04/09 21:44:59;;;;;;;1999.90;999.90;;;;;;;12.24;48.12;100816.44;15905317;28;20406;-57
2021/04/09 21:52:30;;;;;;;1999.90;999.90;;;;;;;12.04;48.23;100810.50;15902716;28;20066;-61
2021/04/09 22:00:06;;;;;;;1999.90;999.90;;;;;;;11.81;48.83;100807.22;15919453;28;20078;-54
2021/04/09 22:07:38;;;;;;;1999.90;999.90;;;;;;;11.56;49.25;100820.16;15903213;28;20043;-56
2021/04/09 22:15:11;;;;;;;1999.90;999.90;;;;;;;11.46;49.44;100812.19;15921522;28;20043;-52
2021/04/09 22:22:43;;;;;;;1999.90;999.90;;;;;;;11.28;50.31;100813.41;15921743;28;20067;-54
2021/04/09 22:30:17;;;;;;;1999.90;999.90;;;;;;;11.21;50.54;100801.94;15903745;28;20069;-54
2021/04/09 22:37:49;;;;;;;1999.90;999.90;;;;;;;10.94;50.76;100798.44;15903345;28;20451;-55
2021/04/09 22:45:21;;;;;;;1999.90;999.90;;;;;;;10.81;51.60;100787.47;15902609;28;20047;-53
2021/04/09 22:52:53;;;;;;;1999.90;999.90;;;;;;;10.74;51.77;100790.78;15911815;27;20051;-56
2021/04/09 23:00:25;;;;;;;1999.90;999.90;;;;;;;10.58;51.75;100784.06;15914647;27;20517;-54
2021/04/09 23:07:57;;;;;;;1999.90;999.90;;;;;;;10.54;51.53;100789.50;15914505;27;20066;-55
2021/04/09 23:15:29;;;;;;;1999.90;999.90;;;;;;;10.43;52.66;100779.03;15914372;27;20495;-58
2021/04/09 23:23:01;;;;;;;1999.90;999.90;;;;;;;10.36;53.69;100771.97;15930433;27;20183;-58
2021/04/09 23:30:33;;;;;;;1999.90;999.90;;;;;;;10.18;52.53;100769.50;15911091;27;20517;-57
2021/04/09 23:38:05;;;;;;;1999.90;999.90;;;;;;;10.22;52.34;100771.34;15932594;27;20514;-54
2021/04/09 23:45:37;;;;;;;1999.90;999.90;;;;;;;10.14;52.85;100763.75;15914450;27;20043;-58
2021/04/09 23:53:08;;;;;;;1999.90;999.90;;;;;;;9.94;52.64;100765.25;15930242;27;20066;-57
